Time;durP1;ratioP1;P1;durP2;ratioP2;P2;SDS_P1;SDS_P2;PMS_P1;PMS_P2;Temp;Humidity;BMP_temperature;BMP_pressure;BME280_temperature;BME280_humidity;BME280_pressure;Samples;Min_cycle;Max_cycle;Signal;HPM_P1;HPM_P2
2021/11/24 00:01:56;;;;;;;6.60;5.90;;;6.70;99.90;;;;;;5124755;28;20383;-79
2021/11/24 00:04:22;;;;;;;8.57;6.17;;;6.80;99.90;;;;;;5135219;28;20165;-80
2021/11/24 00:06:48;;;;;;;13.43;8.03;;;6.70;99.90;;;;;;5131522;28;20221;-81
2021/11/24 00:09:14;;;;;;;9.57;5.87;;;6.70;99.90;;;;;;5127539;28;20162;-81
2021/11/24 00:11:40;;;;;;;8.17;6.90;;;6.70;99.90;;;;;;5128156;28;20186;-81
2021/11/24 00:14:05;;;;;;;8.23;7.10;;;6.70;99.90;;;;;;5130421;28;20173;-80
2021/11/24 00:16:31;;;;;;;11.73;6.93;;;6.60;99.90;;;;;;5130038;28;20162;-81
2021/11/24 00:18:57;;;;;;;10.87;8.00;;;6.60;99.90;;;;;;5132135;28;20162;-81
2021/11/24 00:21:23;;;;;;;12.27;6.40;;;6.70;99.90;;;;;;5132878;28;20242;-80
2021/11/24 00:23:50;;;;;;;10.87;6.63;;;6.70;99.90;;;;;;5131476;28;20212;-81
2021/11/24 00:26:16;;;;;;;13.37;8.33;;;6.70;99.90;;;;;;5129798;28;20162;-81
2021/11/24 00:28:42;;;;;;;10.43;6.40;;;6.80;99.90;;;;;;5130151;28;20403;-81
2021/11/24 00:31:08;;;;;;;10.57;7.37;;;6.80;99.90;;;;;;5129893;28;20204;-80
2021/11/24 00:33:33;;;;;;;9.40;6.27;;;6.80;99.90;;;;;;5110483;28;20558;-81
2021/11/24 00:36:00;;;;;;;6.33;5.73;;;6.80;99.90;;;;;;5128182;28;20162;-81
2021/11/24 00:38:27;;;;;;;10.70;7.20;;;6.70;99.90;;;;;;5131425;28;20371;-80
2021/11/24 00:40:53;;;;;;;13.63;7.57;;;6.70;99.90;;;;;;5131184;28;20362;-81
2021/11/24 00:43:21;;;;;;;8.40;6.80;;;6.70;99.90;;;;;;5112582;28;20403;-81
2021/11/24 00:45:47;;;;;;;7.73;5.80;;;6.70;99.90;;;;;;5130302;28;20378;-81
2021/11/24 00:48:16;;;;;;;12.30;6.60;;;6.60;99.90;;;;;;5112041;28;20987;-81
2021/11/24 00:50:42;;;;;;;13.17;6.90;;;6.60;99.90;;;;;;5130199;28;20515;-81
2021/11/24 00:53:08;;;;;;;9.20;6.60;;;6.60;99.90;;;;;;5130066;28;20398;-81
2021/11/24 00:55:34;;;;;;;15.33;8.50;;;6.60;99.90;;;;;;5130224;28;20169;-80
2021/11/24 00:58:01;;;;;;;6.93;6.23;;;6.60;99.90;;;;;;5129846;28;20188;-81
2021/11/24 01:00:27;;;;;;;8.93;6.40;;;6.60;99.90;;;;;;5130267;28;20159;-81
2021/11/24 01:02:52;;;;;;;16.20;8.83;;;6.60;99.90;;;;;;5130219;28;20396;-81
2021/11/24 01:05:19;;;;;;;11.03;7.47;;;6.60;99.90;;;;;;5129962;28;20173;-81
2021/11/24 01:07:45;;;;;;;11.37;7.40;;;6.60;99.90;;;;;;5130096;28;20158;-81
2021/11/24 01:10:14;;;;;;;10.03;8.07;;;6.60;99.90;;;;;;5130274;28;20463;-80
2021/11/24 01:12:42;;;;;;;8.83;7.83;;;6.60;99.90;;;;;;5130485;28;20379;-81
2021/11/24 01:15:08;;;;;;;14.10;8.00;;;6.50;99.90;;;;;;5130137;28;20377;-81
2021/11/24 01:17:35;;;;;;;15.50;8.60;;;6.50;99.90;;;;;;5130429;28;20919;-81
2021/11/24 01:20:01;;;;;;;10.27;8.27;;;5.90;99.90;;;;;;5111462;28;20707;-80
2021/11/24 01:22:28;;;;;;;13.83;9.33;;;5.70;99.90;;;;;;5130196;28;20402;-80
2021/11/24 01:24:54;;;;;;;11.60;9.57;;;5.40;99.90;;;;;;5129813;28;20411;-81
2021/11/24 01:27:20;;;;;;;13.83;11.10;;;5.10;99.90;;;;;;5128897;28;20708;-79
2021/11/24 01:29:46;;;;;;;14.83;8.63;;;5.00;99.90;;;;;;5128775;28;20370;-80
2021/11/24 01:32:12;;;;;;;16.63;9.20;;;4.70;99.90;;;;;;5129185;28;20197;-81
2021/11/24 01:34:38;;;;;;;16.23;10.53;;;4.50;99.90;;;;;;5128754;28;20222;-79
2021/11/24 01:37:04;;;;;;;13.57;8.40;;;4.30;99.90;;;;;;5109875;28;20449;-81
2021/11/24 01:39:30;;;;;;;12.97;8.70;;;4.40;99.90;;;;;;5128292;28;20367;-81
2021/11/24 01:41:57;;;;;;;13.53;8.93;;;4.40;99.90;;;;;;5128703;28;20397;-81
2021/11/24 01:44:25;;;;;;;15.90;9.50;;;4.30;99.90;;;;;;5110359;28;20444;-81
2021/11/24 01:47:02;;;;;;;10.80;8.07;;;4.30;99.90;;;;;;5128653;28;20370;-81
2021/11/24 01:49:29;;;;;;;11.03;8.13;;;4.30;99.90;;;;;;5127400;28;20422;-80
2021/11/24 01:51:56;;;;;;;24.33;10.57;;;4.40;99.90;;;;;;5127892;28;20487;-80
2021/11/24 01:54:23;;;;;;;20.60;10.67;;;4.50;99.90;;;;;;5127732;28;20455;-81
2021/11/24 01:56:49;;;;;;;17.43;9.33;;;4.30;99.90;;;;;;5109199;28;20406;-81
2021/11/24 01:59:15;;;;;;;10.40;7.23;;;4.40;99.90;;;;;;5128321;28;20381;-81
2021/11/24 02:01:43;;;;;;;14.50;8.47;;;4.30;99.90;;;;;;5127891;28;20498;-81
2021/11/24 02:04:12;;;;;;;14.23;9.67;;;4.30;99.90;;;;;;5130023;28;20400;-80
2021/11/24 02:06:38;;;;;;;14.87;9.57;;;4.50;99.90;;;;;;5136255;28;20396;-80
2021/11/24 02:09:05;;;;;;;10.83;7.70;;;4.70;99.90;;;;;;5136690;28;20378;-81
2021/11/24 02:11:37;;;;;;;16.97;10.63;;;4.70;99.90;;;;;;5135605;28;20448;-81
2021/11/24 02:14:08;;;;;;;12.17;6.87;;;4.70;99.90;;;;;;5131942;28;20387;-81
2021/11/24 02:16:51;;;;;;;12.60;8.23;;;4.80;99.90;;;;;;5130308;28;20486;-81
2021/11/24 02:19:18;;;;;;;18.90;8.53;;;5.00;99.90;;;;;;5130066;28;20366;-81
2021/11/24 02:21:49;;;;;;;16.20;9.80;;;5.20;99.90;;;;;;5129942;28;20413;-81
2021/11/24 02:24:17;;;;;;;11.17;8.93;;;5.40;99.90;;;;;;5130735;28;20691;-81
2021/11/24 02:26:42;;;;;;;17.20;8.40;;;5.50;99.90;;;;;;5129937;28;20362;-81
2021/11/24 02:29:09;;;;;;;18.17;10.10;;;5.70;99.90;;;;;;5129832;28;20408;-81
2021/11/24 02:31:36;;;;;;;12.97;8.70;;;5.70;99.90;;;;;;5129183;28;20211;-80
2021/11/24 02:34:03;;;;;;;16.83;11.40;;;5.90;99.90;;;;;;5128668;28;20431;-81
2021/11/24 02:36:30;;;;;;;18.67;9.30;;;6.00;99.90;;;;;;5128513;28;20363;-81
2021/11/24 02:38:59;;;;;;;17.87;11.83;;;6.20;99.90;;;;;;5128689;28;20384;-81
2021/11/24 02:41:26;;;;;;;16.50;10.23;;;6.20;99.90;;;;;;5128704;28;20460;-81
2021/11/24 02:43:52;;;;;;;17.43;9.47;;;6.20;99.90;;;;;;5129614;28;20381;-82
2021/11/24 02:46:18;;;;;;;17.60;10.00;;;6.30;99.90;;;;;;5130232;28;20374;-81
2021/11/24 02:48:44;;;;;;;15.70;10.20;;;6.30;99.90;;;;;;5130688;28;20448;-82
2021/11/24 02:51:10;;;;;;;10.37;9.00;;;6.30;99.90;;;;;;5130787;28;20239;-82
2021/11/24 02:53:37;;;;;;;11.77;7.80;;;5.60;99.90;;;;;;5131132;28;20375;-82
2021/11/24 02:56:04;;;;;;;13.33;8.43;;;5.00;99.90;;;;;;5132170;28;20416;-82
2021/11/24 02:58:30;;;;;;;17.40;8.33;;;5.10;99.90;;;;;;5137084;28;20373;-79
2021/11/24 03:00:59;;;;;;;12.97;7.37;;;5.00;99.90;;;;;;5136606;28;20366;-79
2021/11/24 03:03:25;;;;;;;9.20;7.67;;;4.90;99.90;;;;;;5136944;28;20488;-78
2021/11/24 03:05:51;;;;;;;16.07;7.90;;;4.70;99.90;;;;;;5136128;28;20395;-81
2021/11/24 03:08:17;;;;;;;25.00;10.03;;;4.60;99.90;;;;;;5113505;28;20388;-81
2021/11/24 03:10:43;;;;;;;12.93;8.13;;;4.70;99.90;;;;;;5130011;28;20209;-81
2021/11/24 03:13:09;;;;;;;15.87;9.43;;;4.40;99.90;;;;;;5128647;28;20157;-81
2021/11/24 03:15:35;;;;;;;12.80;8.57;;;4.50;99.90;;;;;;5128988;28;20369;-81
2021/11/24 03:18:01;;;;;;;16.30;7.60;;;4.50;99.90;;;;;;5128829;28;20391;-81
2021/11/24 03:20:28;;;;;;;17.37;8.67;;;4.40;99.90;;;;;;5127614;28;20215;-81
2021/11/24 03:22:56;;;;;;;16.37;9.40;;;4.30;99.90;;;;;;5127120;28;20398;-81
2021/11/24 03:25:22;;;;;;;11.33;7.60;;;4.20;99.90;;;;;;5127480;28;20367;-81
2021/11/24 03:27:49;;;;;;;13.37;8.40;;;4.40;99.90;;;;;;5128570;28;20373;-80
2021/11/24 03:30:25;;;;;;;17.20;8.00;;;4.30;99.90;;;;;;5126993;28;20398;-80
2021/11/24 03:32:53;;;;;;;9.30;6.90;;;4.40;99.90;;;;;;5126983;28;20384;-81
2021/11/24 03:35:20;;;;;;;13.33;8.93;;;4.50;99.90;;;;;;5127361;28;20388;-81
2021/11/24 03:37:47;;;;;;;17.07;10.43;;;4.50;99.90;;;;;;5128634;28;20460;-81
2021/11/24 03:40:14;;;;;;;11.33;7.40;;;4.40;99.90;;;;;;5128172;28;20350;-81
2021/11/24 03:42:44;;;;;;;10.70;7.23;;;4.20;99.90;;;;;;5128856;28;20376;-81
2021/11/24 03:45:10;;;;;;;7.87;7.17;;;4.20;99.90;;;;;;5128303;28;20904;-80
2021/11/24 03:47:36;;;;;;;11.30;7.60;;;4.20;99.90;;;;;;5127984;28;20350;-80
2021/11/24 03:50:05;;;;;;;11.57;9.17;;;4.20;99.90;;;;;;5127766;28;20387;-81
2021/11/24 03:52:31;;;;;;;6.03;5.53;;;4.20;99.90;;;;;;5128700;28;20439;-80
2021/11/24 03:54:57;;;;;;;7.57;6.80;;;4.20;99.90;;;;;;5110498;28;20391;-80
2021/11/24 03:57:22;;;;;;;9.63;7.13;;;4.20;99.90;;;;;;5128959;28;20173;-81
2021/11/24 03:59:48;;;;;;;11.23;6.93;;;4.10;99.90;;;;;;5130344;28;20162;-81
2021/11/24 04:02:14;;;;;;;9.20;8.30;;;4.20;99.90;;;;;;5127292;28;20162;-80
2021/11/24 04:04:40;;;;;;;6.97;6.23;;;4.10;99.90;;;;;;5128986;28;20166;-82
2021/11/24 04:07:06;;;;;;;9.20;7.37;;;4.10;99.90;;;;;;5128635;28;20190;-81
2021/11/24 04:09:32;;;;;;;8.73;7.93;;;4.20;99.90;;;;;;5129863;28;20461;-82
2021/11/24 04:11:57;;;;;;;9.87;7.80;;;4.10;99.90;;;;;;5132043;28;20201;-82
2021/11/24 04:14:23;;;;;;;14.87;7.63;;;4.00;99.90;;;;;;5134842;28;20170;-81
2021/11/24 04:16:49;;;;;;;12.80;8.27;;;4.20;99.90;;;;;;5135131;28;20162;-81
2021/11/24 04:19:15;;;;;;;15.93;7.23;;;4.30;99.90;;;;;;5134694;28;20158;-82
2021/11/24 04:21:41;;;;;;;12.23;7.47;;;4.10;99.90;;;;;;5134557;28;20478;-82
2021/11/24 04:24:07;;;;;;;13.13;8.30;;;3.90;99.90;;;;;;5134904;28;20396;-81
2021/11/24 04:26:33;;;;;;;12.50;6.87;;;4.00;99.90;;;;;;5134275;28;20166;-82
2021/11/24 04:28:59;;;;;;;9.63;7.13;;;4.10;99.90;;;;;;5135766;28;20170;-82
2021/11/24 04:31:25;;;;;;;7.20;5.50;;;4.10;99.90;;;;;;5117017;28;20190;-82
2021/11/24 04:33:51;;;;;;;12.53;7.50;;;4.20;99.90;;;;;;5117872;28;20405;-82
2021/11/24 04:36:17;;;;;;;12.60;8.77;;;4.20;99.90;;;;;;5137281;28;20162;-81
2021/11/24 04:38:43;;;;;;;10.00;8.50;;;4.20;99.90;;;;;;5118817;28;20371;-80
2021/11/24 04:41:09;;;;;;;8.10;7.30;;;4.40;99.90;;;;;;5138022;28;20395;-82
2021/11/24 04:43:40;;;;;;;10.83;8.20;;;4.60;99.90;;;;;;5119858;28;20382;-82
2021/11/24 04:46:06;;;;;;;14.00;8.77;;;4.60;99.90;;;;;;5134933;28;20423;-81
2021/11/24 04:48:34;;;;;;;10.33;7.83;;;4.70;99.90;;;;;;5139444;28;20459;-79
2021/11/24 04:51:00;;;;;;;9.40;6.33;;;4.60;99.90;;;;;;5140143;27;20209;-78
2021/11/24 04:53:25;;;;;;;23.70;7.17;;;4.70;99.90;;;;;;5122375;28;20399;-79
2021/11/24 04:55:51;;;;;;;14.43;9.63;;;4.70;99.90;;;;;;5134479;28;20154;-80
2021/11/24 04:58:17;;;;;;;9.13;7.90;;;4.90;99.90;;;;;;5131265;28;20163;-81
2021/11/24 05:00:43;;;;;;;12.27;7.30;;;4.90;99.90;;;;;;5131333;28;20191;-80
2021/11/24 05:03:09;;;;;;;13.87;8.40;;;4.90;99.90;;;;;;5131413;28;20418;-80
2021/11/24 05:05:35;;;;;;;10.37;7.87;;;4.80;99.90;;;;;;5132059;28;20462;-80
2021/11/24 05:08:02;;;;;;;9.60;8.13;;;4.50;99.90;;;;;;5133027;28;20184;-81
2021/11/24 05:10:28;;;;;;;15.10;8.90;;;4.50;99.90;;;;;;5140440;28;20399;-81
2021/11/24 05:12:55;;;;;;;8.90;7.17;;;4.50;99.90;;;;;;5118227;28;20354;-81
2021/11/24 05:15:24;;;;;;;10.87;7.17;;;4.30;99.90;;;;;;5133156;28;20374;-81
2021/11/24 05:17:56;;;;;;;16.40;7.90;;;4.10;99.90;;;;;;5132867;28;20395;-81
2021/11/24 05:20:24;;;;;;;10.30;7.53;;;4.10;99.90;;;;;;5133110;28;20388;-81
2021/11/24 05:22:52;;;;;;;17.03;9.50;;;4.20;99.90;;;;;;5130291;28;20402;-80
2021/11/24 05:25:18;;;;;;;12.40;9.20;;;4.20;99.90;;;;;;5114602;28;20411;-81
2021/11/24 05:27:44;;;;;;;15.37;7.43;;;4.20;99.90;;;;;;5114101;28;20362;-82
2021/11/24 05:30:10;;;;;;;10.57;6.30;;;4.10;99.90;;;;;;5131734;28;20154;-81
2021/11/24 05:32:37;;;;;;;12.30;8.00;;;4.20;99.90;;;;;;5131883;28;20223;-81
2021/11/24 05:35:04;;;;;;;9.47;8.50;;;4.10;99.90;;;;;;5131788;28;20378;-81
2021/11/24 05:37:31;;;;;;;8.07;7.27;;;4.00;99.90;;;;;;5131967;28;20375;-80
2021/11/24 05:40:03;;;;;;;9.50;8.50;;;4.00;99.90;;;;;;5103982;28;20454;-80
2021/11/24 05:42:29;;;;;;;12.80;8.87;;;4.30;99.90;;;;;;5025406;28;20400;-81
2021/11/24 05:45:10;;;;;;;9.83;7.50;;;4.30;99.90;;;;;;5043679;28;20850;-80
2021/11/24 05:50:22;;;;;;;14.00;8.37;;;4.20;99.90;;;;;;5049354;28;20459;-80
2021/11/24 05:52:49;;;;;;;16.30;8.40;;;4.30;99.90;;;;;;5049406;28;20423;-82
2021/11/24 05:55:15;;;;;;;10.00;7.23;;;4.30;99.90;;;;;;5049912;28;20188;-81
2021/11/24 05:57:41;;;;;;;9.33;7.70;;;4.50;99.90;;;;;;5049218;28;20394;-82
2021/11/24 06:00:08;;;;;;;11.07;6.30;;;4.40;99.90;;;;;;5034212;28;20385;-82
2021/11/24 06:02:34;;;;;;;9.53;7.97;;;4.50;99.90;;;;;;5048816;28;20593;-81
2021/11/24 06:05:00;;;;;;;8.73;7.80;;;4.70;99.90;;;;;;5053067;28;20403;-81
2021/11/24 06:07:25;;;;;;;8.37;7.67;;;4.60;99.90;;;;;;5029136;28;20185;-82
2021/11/24 06:09:51;;;;;;;10.63;6.20;;;4.50;99.90;;;;;;5028345;28;20161;-82
2021/11/24 06:12:17;;;;;;;12.43;9.00;;;4.30;99.90;;;;;;5046329;28;20211;-82
2021/11/24 06:14:44;;;;;;;8.43;7.63;;;4.30;99.90;;;;;;5133104;28;20158;-82
2021/11/24 06:17:10;;;;;;;12.43;7.30;;;4.10;99.90;;;;;;5132285;28;20242;-82
2021/11/24 06:19:36;;;;;;;9.13;7.23;;;4.20;99.90;;;;;;5107667;28;20480;-82
2021/11/24 06:22:03;;;;;;;8.53;6.20;;;4.20;99.90;;;;;;5058163;28;20435;-82
2021/11/24 06:24:29;;;;;;;10.77;9.33;;;4.10;99.90;;;;;;5106198;28;20186;-81
2021/11/24 06:26:55;;;;;;;7.67;6.87;;;4.10;99.90;;;;;;5094027;28;20400;-82
2021/11/24 06:29:20;;;;;;;9.93;7.40;;;4.10;99.90;;;;;;5098251;28;20420;-82
2021/11/24 06:31:46;;;;;;;8.47;7.10;;;4.20;99.90;;;;;;5114035;28;20196;-79
2021/11/24 06:34:12;;;;;;;21.97;9.13;;;4.30;99.90;;;;;;5093333;28;20163;-79
2021/11/24 06:36:38;;;;;;;8.73;7.40;;;4.10;99.90;;;;;;5116064;28;20402;-79
2021/11/24 06:39:04;;;;;;;9.13;8.03;;;4.00;99.90;;;;;;5099586;28;20159;-79
2021/11/24 06:41:30;;;;;;;9.27;7.80;;;4.20;99.90;;;;;;5094309;28;20189;-81
2021/11/24 06:43:56;;;;;;;15.50;8.87;;;4.40;99.90;;;;;;5108832;28;20440;-80
2021/11/24 06:46:22;;;;;;;11.57;9.43;;;4.20;99.90;;;;;;5088036;28;20592;-80
2021/11/24 06:48:48;;;;;;;14.07;9.60;;;4.00;99.90;;;;;;5109355;28;20214;-81
2021/11/24 06:51:14;;;;;;;11.70;8.43;;;4.20;99.90;;;;;;5091598;28;20190;-81
2021/11/24 06:53:42;;;;;;;19.93;8.87;;;4.20;99.90;;;;;;5110764;28;20428;-80
2021/11/24 06:56:08;;;;;;;14.00;8.40;;;4.20;99.90;;;;;;5109137;28;20372;-80
2021/11/24 06:58:34;;;;;;;10.50;6.93;;;4.10;99.90;;;;;;5109977;28;20878;-80
2021/11/24 07:01:02;;;;;;;9.03;7.73;;;4.20;99.90;;;;;;5111203;28;20395;-80
2021/11/24 07:03:28;;;;;;;14.37;9.30;;;4.10;99.90;;;;;;5128697;28;20500;-80
2021/11/24 07:05:54;;;;;;;11.80;7.93;;;4.10;99.90;;;;;;5117085;28;20374;-81
2021/11/24 07:08:21;;;;;;;9.20;8.17;;;4.20;99.90;;;;;;5112999;28;20425;-81
2021/11/24 07:10:47;;;;;;;12.13;7.87;;;4.00;99.90;;;;;;5119205;28;20542;-81
2021/11/24 07:13:13;;;;;;;9.03;7.40;;;4.00;99.90;;;;;;5092695;28;20451;-81
2021/11/24 07:15:39;;;;;;;10.80;8.20;;;4.20;99.90;;;;;;5110858;28;20485;-82
2021/11/24 07:18:04;;;;;;;9.23;7.70;;;4.30;99.90;;;;;;5089060;28;20715;-82
2021/11/24 07:20:31;;;;;;;10.50;6.50;;;4.30;99.90;;;;;;5109417;28;20253;-82
2021/11/24 07:22:57;;;;;;;9.03;6.60;;;4.20;99.90;;;;;;5108952;28;20201;-82
2021/11/24 07:25:26;;;;;;;9.90;8.40;;;3.90;99.90;;;;;;5106680;28;21115;-81
2021/11/24 07:27:52;;;;;;;12.33;8.57;;;3.90;99.90;;;;;;5083206;28;20814;-82
2021/11/24 07:30:20;;;;;;;16.20;8.57;;;3.90;99.90;;;;;;5104783;28;20432;-81
2021/11/24 07:32:46;;;;;;;10.83;8.27;;;4.10;99.90;;;;;;5122597;28;20469;-81
2021/11/24 07:35:12;;;;;;;15.77;8.00;;;4.00;99.90;;;;;;5119945;28;20426;-80
2021/11/24 07:37:38;;;;;;;9.17;7.53;;;4.00;99.90;;;;;;5112007;28;20282;-80
2021/11/24 07:40:06;;;;;;;9.23;8.20;;;4.10;99.90;;;;;;5114510;28;20170;-80
2021/11/24 07:42:32;;;;;;;10.23;7.57;;;4.20;99.90;;;;;;5114469;28;20165;-80
2021/11/24 07:44:58;;;;;;;24.67;10.27;;;4.10;99.90;;;;;;5109898;28;20433;-80
2021/11/24 07:47:24;;;;;;;16.57;9.10;;;4.20;99.90;;;;;;5117021;28;20607;-79
2021/11/24 07:49:50;;;;;;;9.07;8.17;;;4.20;99.90;;;;;;5116826;28;20434;-80
2021/11/24 07:52:16;;;;;;;13.43;7.50;;;4.30;99.90;;;;;;5116265;28;20242;-81
2021/11/24 07:54:43;;;;;;;8.00;7.20;;;4.30;99.90;;;;;;5102243;28;20881;-78
2021/11/24 07:57:09;;;;;;;11.30;7.57;;;4.20;99.90;;;;;;5086683;28;20886;-82
2021/11/24 07:59:37;;;;;;;9.93;7.50;;;4.40;99.90;;;;;;5088595;28;20441;-82
2021/11/24 08:02:03;;;;;;;12.13;8.00;;;4.20;99.90;;;;;;5064732;28;20771;-82
2021/11/24 08:04:29;;;;;;;12.20;9.97;;;4.20;99.90;;;;;;5108190;28;20486;-81
2021/11/24 08:06:59;;;;;;;8.67;7.13;;;4.30;99.90;;;;;;5081813;28;20443;-81
2021/11/24 08:09:26;;;;;;;9.83;8.13;;;4.40;99.90;;;;;;5100217;28;20497;-80
2021/11/24 08:11:53;;;;;;;16.57;9.60;;;4.30;99.90;;;;;;5105573;28;20455;-81
2021/11/24 08:14:20;;;;;;;15.77;8.37;;;4.30;99.90;;;;;;5063227;28;20434;-81
2021/11/24 08:16:45;;;;;;;9.03;8.17;;;4.30;99.90;;;;;;5103493;28;20443;-80
2021/11/24 08:19:11;;;;;;;8.70;6.43;;;4.50;99.90;;;;;;5109671;28;20436;-80
2021/11/24 08:21:37;;;;;;;11.60;8.30;;;4.40;99.90;;;;;;5101621;28;20206;-80
2021/11/24 08:24:04;;;;;;;12.67;7.70;;;4.30;99.90;;;;;;5074148;28;20428;-81
2021/11/24 08:26:30;;;;;;;9.47;7.53;;;4.50;99.90;;;;;;5098335;28;20904;-81
2021/11/24 08:28:55;;;;;;;9.53;6.27;;;4.70;99.90;;;;;;5078820;28;20448;-81
2021/11/24 08:31:22;;;;;;;9.93;7.60;;;4.60;99.90;;;;;;5105363;28;20818;-81
2021/11/24 08:33:48;;;;;;;10.50;6.50;;;4.70;99.90;;;;;;5112366;28;20194;-80
2021/11/24 08:36:15;;;;;;;9.47;6.43;;;4.90;99.90;;;;;;5079445;28;20421;-81
2021/11/24 08:38:42;;;;;;;9.50;6.67;;;4.90;99.90;;;;;;5108183;28;20413;-82
2021/11/24 08:41:11;;;;;;;8.37;6.90;;;5.00;99.90;;;;;;5088938;28;20843;-81
2021/11/24 08:43:38;;;;;;;7.27;6.50;;;5.10;99.90;;;;;;5104042;28;20413;-81
2021/11/24 08:46:04;;;;;;;6.53;5.73;;;5.00;99.90;;;;;;5104802;28;20995;-81
2021/11/24 08:48:31;;;;;;;12.10;6.53;;;5.20;99.90;;;;;;5085374;28;20673;-81
2021/11/24 08:50:57;;;;;;;11.13;6.90;;;5.30;99.90;;;;;;5109876;28;20473;-81
2021/11/24 08:53:23;;;;;;;7.33;6.67;;;5.50;99.90;;;;;;5088969;28;20410;-80
2021/11/24 08:55:49;;;;;;;12.87;8.93;;;5.70;99.90;;;;;;5083203;28;20785;-82
2021/11/24 08:58:15;;;;;;;11.80;7.60;;;5.80;99.90;;;;;;5083246;28;20521;-80
2021/11/24 09:00:42;;;;;;;12.50;9.47;;;6.10;99.90;;;;;;5110022;28;20531;-82
2021/11/24 09:03:10;;;;;;;15.43;8.40;;;6.20;99.90;;;;;;5108454;28;20781;-82
2021/11/24 09:05:37;;;;;;;29.93;9.43;;;6.40;99.90;;;;;;5108564;28;20423;-81
2021/11/24 09:08:03;;;;;;;19.47;8.50;;;6.50;99.90;;;;;;5098780;28;20442;-82
2021/11/24 09:10:31;;;;;;;14.57;9.53;;;6.60;99.90;;;;;;5115428;28;20494;-81
2021/11/24 09:12:59;;;;;;;14.23;8.70;;;6.70;99.90;;;;;;5052659;28;20409;-79
2021/11/24 09:15:28;;;;;;;19.00;11.77;;;6.80;99.90;;;;;;5021408;28;20441;-81
2021/11/24 09:17:56;;;;;;;14.27;9.10;;;6.90;99.90;;;;;;5027870;28;20422;-79
2021/11/24 09:20:25;;;;;;;11.73;10.50;;;6.90;99.90;;;;;;5031448;28;20247;-80
2021/11/24 09:23:02;;;;;;;15.13;10.83;;;7.00;99.90;;;;;;4998244;28;20457;-79
2021/11/24 09:28:10;;;;;;;16.37;9.17;;;7.10;99.90;;;;;;5006694;28;20455;-81
2021/11/24 09:30:36;;;;;;;15.27;10.07;;;7.20;99.90;;;;;;5002616;28;20576;-80
2021/11/24 09:33:02;;;;;;;12.43;8.03;;;7.30;99.90;;;;;;4988784;28;20445;-80
2021/11/24 09:35:28;;;;;;;14.80;9.83;;;7.30;99.90;;;;;;5001141;28;20444;-83
2021/11/24 09:37:54;;;;;;;14.40;7.40;;;7.40;99.90;;;;;;5002206;28;20329;-80
2021/11/24 09:40:28;;;;;;;17.90;9.30;;;7.50;99.90;;;;;;4999456;28;20507;-82
2021/11/24 09:43:00;;;;;;;9.93;8.90;;;7.50;99.90;;;;;;4987153;28;20444;-81
2021/11/24 09:45:46;;;;;;;21.30;10.07;;;7.40;99.90;;;;;;5012152;28;20435;-80
2021/11/24 09:48:17;;;;;;;11.63;7.13;;;7.60;99.90;;;;;;4977478;28;20544;-81
2021/11/24 09:50:47;;;;;;;13.73;6.90;;;7.60;99.90;;;;;;4951760;28;20540;-81
2021/11/24 09:53:13;;;;;;;15.33;9.70;;;7.60;99.90;;;;;;4993435;28;20442;-81
2021/11/24 09:55:40;;;;;;;12.63;9.43;;;7.70;99.90;;;;;;5043735;28;20438;-82
2021/11/24 09:58:07;;;;;;;10.00;8.73;;;7.60;99.90;;;;;;5033870;28;20414;-81
2021/11/24 10:00:36;;;;;;;10.40;7.83;;;7.60;99.90;;;;;;5034209;28;20443;-81
2021/11/24 10:03:03;;;;;;;10.87;7.53;;;7.60;99.90;;;;;;5035725;28;20403;-82
2021/11/24 10:05:31;;;;;;;13.33;6.80;;;7.60;99.90;;;;;;5010317;28;20470;-81
2021/11/24 10:07:57;;;;;;;7.27;6.00;;;7.60;99.90;;;;;;5020757;28;20951;-82
2021/11/24 10:10:25;;;;;;;7.83;6.60;;;7.80;99.90;;;;;;5024937;28;20489;-82
2021/11/24 10:12:51;;;;;;;9.30;6.60;;;7.70;99.90;;;;;;5032301;28;20441;-82
2021/11/24 10:15:39;;;;;;;9.80;5.23;;;7.60;99.90;;;;;;5036509;28;20444;-81
2021/11/24 10:18:27;;;;;;;6.87;5.80;;;7.30;99.90;;;;;;5040742;28;20443;-82
2021/11/24 10:21:02;;;;;;;5.87;5.33;;;6.90;99.90;;;;;;5042584;28;20462;-80
2021/11/24 10:23:32;;;;;;;10.40;5.00;;;7.10;99.90;;;;;;5073741;28;20512;-82
2021/11/24 10:26:27;;;;;;;2.73;2.53;;;7.00;99.90;;;;;;5064833;28;20509;-80
2021/11/24 10:28:57;;;;;;;3.57;3.27;;;7.00;99.90;;;;;;5063968;28;20418;-80
2021/11/24 10:31:27;;;;;;;1.70;1.60;;;7.00;99.90;;;;;;5075340;28;20536;-81
2021/11/24 10:33:53;;;;;;;3.97;2.07;;;7.30;99.90;;;;;;5080689;28;20474;-82
2021/11/24 10:36:19;;;;;;;3.00;1.80;;;7.50;99.90;;;;;;5072487;28;20444;-82
2021/11/24 10:38:48;;;;;;;2.30;2.00;;;7.70;99.90;;;;;;5052748;28;20415;-82
2021/11/24 10:41:27;;;;;;;4.43;2.17;;;7.20;99.90;;;;;;5078723;28;20408;-81
2021/11/24 10:43:53;;;;;;;2.70;2.40;;;7.00;99.90;;;;;;5062933;28;20420;-80
2021/11/24 10:46:24;;;;;;;2.27;2.07;;;7.00;99.90;;;;;;5076155;28;20572;-80
2021/11/24 10:48:59;;;;;;;4.33;2.23;;;7.20;99.90;;;;;;5077922;28;20255;-81
2021/11/24 10:51:30;;;;;;;2.80;2.30;;;7.10;99.90;;;;;;5078458;28;20475;-80
2021/11/24 10:54:09;;;;;;;3.50;2.20;;;7.30;99.90;;;;;;5108483;27;20889;-79
2021/11/24 10:56:55;;;;;;;2.43;2.23;;;6.90;99.90;;;;;;5111308;28;20812;-79
2021/11/24 10:59:21;;;;;;;7.70;4.60;;;7.60;99.90;;;;;;5114416;28;20951;-80
2021/11/24 11:01:47;;;;;;;3.17;2.87;;;10.50;99.90;;;;;;5063186;28;21066;-81
2021/11/24 11:04:13;;;;;;;2.60;2.40;;;9.80;99.90;;;;;;5052158;28;20191;-83
2021/11/24 11:06:41;;;;;;;2.03;1.93;;;10.50;99.90;;;;;;5066835;28;20568;-81
2021/11/24 11:09:09;;;;;;;1.90;1.80;;;11.00;99.90;;;;;;5044421;28;20807;-80
2021/11/24 11:11:36;;;;;;;2.33;2.13;;;10.60;99.90;;;;;;5013603;28;20462;-82
2021/11/24 11:14:21;;;;;;;2.03;1.80;;;9.50;99.90;;;;;;5019988;28;20575;-83
2021/11/24 11:16:50;;;;;;;2.10;2.00;;;7.90;99.90;;;;;;5036156;28;20440;-79
2021/11/24 11:19:48;;;;;;;2.40;2.20;;;7.60;99.90;;;;;;5022482;28;20446;-82
2021/11/24 11:22:17;;;;;;;2.50;1.80;;;7.70;99.90;;;;;;5027732;28;20461;-80
2021/11/24 11:24:43;;;;;;;1.90;1.80;;;7.30;99.90;;;;;;5033630;28;20445;-81
2021/11/24 11:27:10;;;;;;;2.37;2.17;;;7.50;99.90;;;;;;5010397;28;20670;-80
2021/11/24 11:29:37;;;;;;;4.73;2.60;;;7.60;99.90;;;;;;5035816;28;20400;-81
2021/11/24 11:32:06;;;;;;;2.77;2.03;;;7.60;99.90;;;;;;5046036;28;20848;-80
2021/11/24 11:34:38;;;;;;;2.33;2.00;;;7.70;99.90;;;;;;5044326;28;20421;-79
2021/11/24 11:37:04;;;;;;;1.90;1.80;;;7.80;99.90;;;;;;5065980;28;20479;-81
2021/11/24 11:39:31;;;;;;;3.03;2.10;;;7.90;99.90;;;;;;5071211;28;20417;-80
2021/11/24 11:41:57;;;;;;;2.33;2.13;;;7.90;99.90;;;;;;5112407;28;20475;-80
2021/11/24 11:44:23;;;;;;;1.93;1.83;;;7.90;99.90;;;;;;5105287;28;20501;-81
2021/11/24 11:46:51;;;;;;;1.63;1.53;;;8.60;99.90;;;;;;5114291;28;20441;-82
2021/11/24 11:49:22;;;;;;;2.13;1.97;;;8.20;99.90;;;;;;5117093;28;20443;-80
2021/11/24 11:51:50;;;;;;;2.63;2.40;;;8.20;99.90;;;;;;5112469;28;20468;-81
2021/11/24 11:54:26;;;;;;;2.80;2.30;;;8.80;99.90;;;;;;5123534;28;20490;-82
2021/11/24 11:56:52;;;;;;;1.73;1.63;;;10.90;99.90;;;;;;5093966;28;20890;-82
2021/11/24 11:59:23;;;;;;;3.50;1.80;;;12.60;99.90;;;;;;5097007;28;20488;-82
2021/11/24 12:02:00;;;;;;;1.40;1.30;;;13.50;99.90;;;;;;5105193;28;20439;-79
2021/11/24 12:04:31;;;;;;;7.90;2.60;;;13.50;99.90;;;;;;5099810;28;20533;-82
2021/11/24 12:07:05;;;;;;;2.53;2.33;;;11.60;99.90;;;;;;5089171;28;20693;-82
2021/11/24 12:09:35;;;;;;;1.83;1.73;;;10.00;99.90;;;;;;5123393;28;20427;-83
2021/11/24 12:12:08;;;;;;;2.30;2.10;;;9.00;99.90;;;;;;5117692;28;20435;-82
2021/11/24 12:14:52;;;;;;;4.27;2.83;;;10.30;99.90;;;;;;5084675;28;20895;-81
2021/11/24 12:17:36;;;;;;;2.63;2.40;;;11.10;99.90;;;;;;5097180;28;20536;-82
2021/11/24 12:20:39;;;;;;;2.73;2.30;;;12.10;99.90;;;;;;5086922;28;20423;-79
2021/11/24 12:23:06;;;;;;;2.97;2.30;;;11.80;99.90;;;;;;5071805;28;20488;-80
2021/11/24 12:25:44;;;;;;;3.83;2.43;;;10.40;99.90;;;;;;5042725;28;21026;-79
2021/11/24 12:28:15;;;;;;;6.47;4.77;;;9.20;99.90;;;;;;5042654;28;20519;-79
2021/11/24 12:30:53;;;;;;;2.90;2.27;;;8.90;99.90;;;;;;5038882;28;20488;-81
2021/11/24 12:33:28;;;;;;;3.80;2.40;;;8.70;99.90;;;;;;5019308;28;21027;-79
2021/11/24 12:36:04;;;;;;;2.43;2.23;;;8.90;99.90;;;;;;5032176;28;20418;-80
2021/11/24 12:38:33;;;;;;;2.90;1.97;;;8.70;99.90;;;;;;5075662;28;20428;-82
2021/11/24 12:41:02;;;;;;;2.43;2.23;;;8.60;99.90;;;;;;5072682;28;20412;-82
2021/11/24 12:43:31;;;;;;;2.43;2.23;;;8.30;99.90;;;;;;5055077;28;20418;-82
2021/11/24 12:46:06;;;;;;;2.10;1.90;;;7.90;99.90;;;;;;5044548;28;20422;-81
2021/11/24 12:48:36;;;;;;;3.40;1.90;;;7.80;99.90;;;;;;5063052;28;20522;-78
2021/11/24 12:51:04;;;;;;;3.03;2.47;;;7.80;99.90;;;;;;5038252;28;20825;-79
2021/11/24 12:53:37;;;;;;;2.27;2.10;;;7.90;99.90;;;;;;5051461;28;20422;-82
2021/11/24 12:56:13;;;;;;;2.50;2.20;;;8.10;99.90;;;;;;5055386;28;20496;-79
2021/11/24 12:58:42;;;;;;;3.20;2.37;;;7.90;99.90;;;;;;5063827;28;20399;-79
2021/11/24 13:01:27;;;;;;;3.37;2.23;;;7.90;99.90;;;;;;5058090;28;21033;-81